sensor_id;sensor_type;location;lat;lon;timestamp;pressure;altitude;pressure_sealevel;temperature;humidity
16451;BME280;12243;42.708;23.310;2022-09-20T00:02:26;95119.94;;;10.88;81.23
16451;BME280;12243;42.708;23.310;2022-09-20T00:04:53;95124.03;;;10.90;81.04
16451;BME280;12243;42.708;23.310;2022-09-20T00:07:21;95121.50;;;10.79;82.08
16451;BME280;12243;42.708;23.310;2022-09-20T00:09:48;95122.25;;;10.70;81.74
16451;BME280;12243;42.708;23.310;2022-09-20T00:12:15;95122.78;;;10.64;82.64
16451;BME280;12243;42.708;23.310;2022-09-20T00:14:42;95122.97;;;10.72;81.84
16451;BME280;12243;42.708;23.310;2022-09-20T00:17:09;95123.97;;;10.60;82.43
16451;BME280;12243;42.708;23.310;2022-09-20T00:19:36;95125.41;;;10.53;82.20
16451;BME280;12243;42.708;23.310;2022-09-20T00:22:03;95126.38;;;10.52;81.79
16451;BME280;12243;42.708;23.310;2022-09-20T00:24:31;95123.53;;;10.55;82.38
16451;BME280;12243;42.708;23.310;2022-09-20T00:27:01;95111.72;;;10.51;82.07
16451;BME280;12243;42.708;23.310;2022-09-20T00:29:28;95116.34;;;10.47;81.78
16451;BME280;12243;42.708;23.310;2022-09-20T00:31:54;95113.84;;;10.45;82.08
16451;BME280;12243;42.708;23.310;2022-09-20T00:34:21;95116.19;;;10.48;82.28
16451;BME280;12243;42.708;23.310;2022-09-20T00:37:06;95121.91;;;10.42;82.44
16451;BME280;12243;42.708;23.310;2022-09-20T00:39:34;95116.97;;;10.39;82.18
16451;BME280;12243;42.708;23.310;2022-09-20T00:42:01;95121.94;;;10.31;83.04
16451;BME280;12243;42.708;23.310;2022-09-20T00:44:43;95110.72;;;10.31;82.78
16451;BME280;12243;42.708;23.310;2022-09-20T00:47:20;95122.41;;;10.25;83.45
16451;BME280;12243;42.708;23.310;2022-09-20T00:49:48;95123.50;;;10.34;83.73
16451;BME280;12243;42.708;23.310;2022-09-20T00:52:17;95114.63;;;10.36;83.21
16451;BME280;12243;42.708;23.310;2022-09-20T00:54:47;95128.31;;;10.38;82.71
16451;BME280;12243;42.708;23.310;2022-09-20T00:57:14;95129.50;;;10.34;82.64
16451;BME280;12243;42.708;23.310;2022-09-20T00:59:43;95135.44;;;10.36;82.39
16451;BME280;12243;42.708;23.310;2022-09-20T01:02:15;95130.31;;;10.46;82.93
16451;BME280;12243;42.708;23.310;2022-09-20T01:04:43;95126.28;;;10.42;81.96
16451;BME280;12243;42.708;23.310;2022-09-20T01:07:14;95118.81;;;10.48;81.84
16451;BME280;12243;42.708;23.310;2022-09-20T01:09:42;95119.38;;;10.52;81.05
16451;BME280;12243;42.708;23.310;2022-09-20T01:12:12;95128.28;;;10.49;81.45
16451;BME280;12243;42.708;23.310;2022-09-20T01:14:42;95111.47;;;10.42;81.50
16451;BME280;12243;42.708;23.310;2022-09-20T01:17:10;95133.16;;;10.43;81.54
16451;BME280;12243;42.708;23.310;2022-09-20T01:19:41;95127.97;;;10.43;81.46
16451;BME280;12243;42.708;23.310;2022-09-20T01:22:19;95127.25;;;10.41;80.70
16451;BME280;12243;42.708;23.310;2022-09-20T01:24:52;95114.69;;;10.46;81.03
16451;BME280;12243;42.708;23.310;2022-09-20T01:27:35;95115.44;;;10.37;80.80
16451;BME280;12243;42.708;23.310;2022-09-20T01:30:05;95115.44;;;10.37;80.72
16451;BME280;12243;42.708;23.310;2022-09-20T01:32:43;95112.44;;;10.41;80.37
16451;BME280;12243;42.708;23.310;2022-09-20T01:35:15;95112.13;;;10.23;81.00
16451;BME280;12243;42.708;23.310;2022-09-20T01:38:04;95115.59;;;10.13;82.33
16451;BME280;12243;42.708;23.310;2022-09-20T01:40:38;95111.84;;;10.06;82.99
16451;BME280;12243;42.708;23.310;2022-09-20T01:43:14;95114.47;;;9.94;83.44
16451;BME280;12243;42.708;23.310;2022-09-20T01:45:46;95119.19;;;9.89;84.23
16451;BME280;12243;42.708;23.310;2022-09-20T01:48:20;95126.88;;;9.79;85.51
16451;BME280;12243;42.708;23.310;2022-09-20T01:51:28;95129.19;;;9.73;86.17
16451;BME280;12243;42.708;23.310;2022-09-20T01:57:20;95133.91;;;9.68;86.15
16451;BME280;12243;42.708;23.310;2022-09-20T02:00:05;95130.59;;;9.66;86.41
16451;BME280;12243;42.708;23.310;2022-09-20T02:06:03;95114.53;;;9.49;88.11
16451;BME280;12243;42.708;23.310;2022-09-20T02:08:53;95115.72;;;9.45;88.91
16451;BME280;12243;42.708;23.310;2022-09-20T02:11:31;95105.53;;;9.53;89.01
16451;BME280;12243;42.708;23.310;2022-09-20T02:14:22;95096.09;;;9.41;89.55
16451;BME280;12243;42.708;23.310;2022-09-20T02:16:56;95100.09;;;9.34;90.10
16451;BME280;12243;42.708;23.310;2022-09-20T02:19:32;95096.09;;;9.41;89.41
16451;BME280;12243;42.708;23.310;2022-09-20T02:22:18;95105.91;;;9.38;89.23
16451;BME280;12243;42.708;23.310;2022-09-20T02:24:54;95106.97;;;9.35;88.89
16451;BME280;12243;42.708;23.310;2022-09-20T02:27:31;95102.84;;;9.33;88.73
16451;BME280;12243;42.708;23.310;2022-09-20T02:30:14;95102.38;;;9.27;88.20
16451;BME280;12243;42.708;23.310;2022-09-20T02:33:12;95107.09;;;9.22;87.88
16451;BME280;12243;42.708;23.310;2022-09-20T02:35:54;95104.13;;;9.27;86.63
16451;BME280;12243;42.708;23.310;2022-09-20T02:38:38;95111.22;;;9.14;87.17
16451;BME280;12243;42.708;23.310;2022-09-20T02:41:41;95106.03;;;9.14;87.07
16451;BME280;12243;42.708;23.310;2022-09-20T02:44:19;95108.38;;;9.05;87.85
16451;BME280;12243;42.708;23.310;2022-09-20T02:46:58;95111.31;;;9.01;88.71
16451;BME280;12243;42.708;23.310;2022-09-20T02:49:35;95116.63;;;8.99;89.38
16451;BME280;12243;42.708;23.310;2022-09-20T02:52:12;95112.22;;;8.89;91.04
16451;BME280;12243;42.708;23.310;2022-09-20T02:54:49;95119.69;;;8.93;91.23
16451;BME280;12243;42.708;23.310;2022-09-20T02:57:24;95105.75;;;8.83;92.36
16451;BME280;12243;42.708;23.310;2022-09-20T02:59:57;95109.53;;;8.79;93.08
16451;BME280;12243;42.708;23.310;2022-09-20T03:02:29;95121.34;;;8.83;92.88
16451;BME280;12243;42.708;23.310;2022-09-20T03:05:18;95115.91;;;8.86;93.20
16451;BME280;12243;42.708;23.310;2022-09-20T03:07:57;95118.00;;;8.81;93.39
16451;BME280;12243;42.708;23.310;2022-09-20T03:10:37;95117.06;;;8.82;93.42
16451;BME280;12243;42.708;23.310;2022-09-20T03:13:14;95114.59;;;8.80;93.85
16451;BME280;12243;42.708;23.310;2022-09-20T03:15:54;95118.59;;;8.85;92.95
16451;BME280;12243;42.708;23.310;2022-09-20T03:18:32;95125.19;;;8.77;92.67
16451;BME280;12243;42.708;23.310;2022-09-20T03:21:11;95136.16;;;8.70;92.97
16451;BME280;12243;42.708;23.310;2022-09-20T03:23:55;95137.38;;;8.77;92.49
16451;BME280;12243;42.708;23.310;2022-09-20T03:26:36;95130.97;;;8.70;93.36
16451;BME280;12243;42.708;23.310;2022-09-20T04:03:38;95145.53;;;8.48;92.62
16451;BME280;12243;42.708;23.310;2022-09-20T04:06:30;95150.16;;;8.56;91.77
16451;BME280;12243;42.708;23.310;2022-09-20T04:09:33;95151.22;;;8.53;91.76
16451;BME280;12243;42.708;23.310;2022-09-20T04:12:09;95153.72;;;8.55;90.95
16451;BME280;12243;42.708;23.310;2022-09-20T04:14:46;95162.06;;;8.47;91.03
16451;BME280;12243;42.708;23.310;2022-09-20T04:17:28;95166.78;;;8.53;90.95
16451;BME280;12243;42.708;23.310;2022-09-20T04:20:02;95177.97;;;8.54;91.23
16451;BME280;12243;42.708;23.310;2022-09-20T04:22:34;95178.16;;;8.64;90.26
16451;BME280;12243;42.708;23.310;2022-09-20T04:25:10;95177.72;;;8.70;90.17
16451;BME280;12243;42.708;23.310;2022-09-20T04:27:41;95169.19;;;8.68;89.64
16451;BME280;12243;42.708;23.310;2022-09-20T04:30:16;95176.72;;;8.59;89.30
16451;BME280;12243;42.708;23.310;2022-09-20T04:32:48;95172.13;;;8.63;89.66
16451;BME280;12243;42.708;23.310;2022-09-20T04:35:32;95174.38;;;8.68;89.71
16451;BME280;12243;42.708;23.310;2022-09-20T04:38:20;95170.41;;;8.75;89.34
16451;BME280;12243;42.708;23.310;2022-09-20T04:41:11;95169.66;;;8.62;90.30
16451;BME280;12243;42.708;23.310;2022-09-20T04:44:09;95190.44;;;8.62;90.39
16451;BME280;12243;42.708;23.310;2022-09-20T04:50:02;95180.19;;;8.71;90.94
16451;BME280;12243;42.708;23.310;2022-09-20T04:52:56;95183.38;;;8.75;90.68
16451;BME280;12243;42.708;23.310;2022-09-20T04:55:44;95187.16;;;8.82;91.01
16451;BME280;12243;42.708;23.310;2022-09-20T04:58:35;95183.47;;;8.97;90.46
16451;BME280;12243;42.708;23.310;2022-09-20T05:01:38;95182.19;;;9.14;89.03
16451;BME280;12243;42.708;23.310;2022-09-20T05:07:24;95182.34;;;9.46;87.72
16451;BME280;12243;42.708;23.310;2022-09-20T05:13:12;95185.66;;;9.71;86.10
16451;BME280;12243;42.708;23.310;2022-09-20T05:15:51;95194.53;;;9.79;86.89
16451;BME280;12243;42.708;23.310;2022-09-20T05:21:33;95193.94;;;9.87;85.26
16451;BME280;12243;42.708;23.310;2022-09-20T05:24:19;95207.91;;;9.97;85.43
16451;BME280;12243;42.708;23.310;2022-09-20T05:27:02;95199.50;;;9.94;86.07
16451;BME280;12243;42.708;23.310;2022-09-20T05:29:39;95197.50;;;9.97;85.45
16451;BME280;12243;42.708;23.310;2022-09-20T05:32:16;95196.66;;;10.08;84.66
16451;BME280;12243;42.708;23.310;2022-09-20T05:34:49;95197.22;;;10.12;85.50
16451;BME280;12243;42.708;23.310;2022-09-20T05:37:29;95195.56;;;10.22;84.47
16451;BME280;12243;42.708;23.310;2022-09-20T05:40:04;95192.47;;;10.28;84.72
16451;BME280;12243;42.708;23.310;2022-09-20T05:42:45;95195.56;;;10.22;83.85
16451;BME280;12243;42.708;23.310;2022-09-20T05:45:30;95192.47;;;10.17;84.06
16451;BME280;12243;42.708;23.310;2022-09-20T05:48:12;95197.44;;;10.31;84.23
16451;BME280;12243;42.708;23.310;2022-09-20T05:50:45;95191.03;;;10.35;82.87
16451;BME280;12243;42.708;23.310;2022-09-20T05:54:03;95199.47;;;10.60;83.86
16451;BME280;12243;42.708;23.310;2022-09-20T05:56:40;95199.91;;;10.76;81.55
16451;BME280;12243;42.708;23.310;2022-09-20T05:59:40;95206.31;;;10.72;81.78
16451;BME280;12243;42.708;23.310;2022-09-20T06:02:19;95195.94;;;10.93;81.48
16451;BME280;12243;42.708;23.310;2022-09-20T06:04:54;95206.53;;;11.22;79.94
16451;BME280;12243;42.708;23.310;2022-09-20T06:07:43;95190.22;;;11.20;79.46
16451;BME280;12243;42.708;23.310;2022-09-20T06:16:06;95206.69;;;11.41;78.70
16451;BME280;12243;42.708;23.310;2022-09-20T06:18:39;95204.25;;;11.50;77.70
16451;BME280;12243;42.708;23.310;2022-09-20T06:21:18;95209.16;;;11.43;78.19
16451;BME280;12243;42.708;23.310;2022-09-20T06:23:49;95202.78;;;11.57;77.20
16451;BME280;12243;42.708;23.310;2022-09-20T06:26:19;95209.00;;;11.65;77.12
16451;BME280;12243;42.708;23.310;2022-09-20T06:28:50;95197.91;;;11.73;75.97
16451;BME280;12243;42.708;23.310;2022-09-20T06:31:21;95195.13;;;11.86;75.27
16451;BME280;12243;42.708;23.310;2022-09-20T06:33:52;95207.50;;;11.94;74.20
16451;BME280;12243;42.708;23.310;2022-09-20T06:36:25;95209.06;;;11.75;75.36
16451;BME280;12243;42.708;23.310;2022-09-20T06:39:16;95201.75;;;11.69;75.31
16451;BME280;12243;42.708;23.310;2022-09-20T06:42:08;95205.94;;;11.60;76.07
16451;BME280;12243;42.708;23.310;2022-09-20T06:44:35;95193.41;;;11.75;75.13
16451;BME280;12243;42.708;23.310;2022-09-20T06:47:08;95207.00;;;12.00;74.74
16451;BME280;12243;42.708;23.310;2022-09-20T06:49:35;95197.13;;;12.13;73.03
16451;BME280;12243;42.708;23.310;2022-09-20T06:52:04;95199.91;;;12.21;72.73
16451;BME280;12243;42.708;23.310;2022-09-20T06:54:31;95201.88;;;12.38;73.54
16451;BME280;12243;42.708;23.310;2022-09-20T06:57:01;95206.00;;;12.51;72.02
16451;BME280;12243;42.708;23.310;2022-09-20T06:59:29;95209.31;;;12.72;70.88
16451;BME280;12243;42.708;23.310;2022-09-20T07:01:56;95211.00;;;12.93;69.11
16451;BME280;12243;42.708;23.310;2022-09-20T07:04:25;95213.06;;;12.99;68.82
16451;BME280;12243;42.708;23.310;2022-09-20T07:06:58;95217.03;;;12.93;69.20
16451;BME280;12243;42.708;23.310;2022-09-20T07:09:25;95221.31;;;13.04;68.30
16451;BME280;12243;42.708;23.310;2022-09-20T07:11:52;95217.75;;;13.05;68.17
16451;BME280;12243;42.708;23.310;2022-09-20T07:14:21;95219.94;;;13.00;67.74
16451;BME280;12243;42.708;23.310;2022-09-20T07:16:49;95228.06;;;12.77;68.98
16451;BME280;12243;42.708;23.310;2022-09-20T07:19:16;95226.09;;;12.79;69.01
16451;BME280;12243;42.708;23.310;2022-09-20T07:21:45;95225.72;;;12.84;68.97
16451;BME280;12243;42.708;23.310;2022-09-20T07:24:11;95220.91;;;12.89;69.64
16451;BME280;12243;42.708;23.310;2022-09-20T07:26:39;95215.94;;;13.15;68.56
16451;BME280;12243;42.708;23.310;2022-09-20T07:29:19;95220.91;;;13.28;67.71
16451;BME280;12243;42.708;23.310;2022-09-20T07:31:47;95217.56;;;13.55;66.61
16451;BME280;12243;42.708;23.310;2022-09-20T07:34:15;95215.53;;;13.86;65.89
16451;BME280;12243;42.708;23.310;2022-09-20T07:36:46;95213.56;;;13.98;64.07
16451;BME280;12243;42.708;23.310;2022-09-20T07:39:13;95218.78;;;13.70;65.44
16451;BME280;12243;42.708;23.310;2022-09-20T07:41:40;95205.50;;;13.81;64.56
16451;BME280;12243;42.708;23.310;2022-09-20T07:44:15;95210.50;;;14.12;65.16
16451;BME280;12243;42.708;23.310;2022-09-20T07:46:50;95208.66;;;14.50;62.70
16451;BME280;12243;42.708;23.310;2022-09-20T07:49:17;95207.78;;;14.59;62.31
16451;BME280;12243;42.708;23.310;2022-09-20T07:51:45;95196.91;;;14.54;61.90
16451;BME280;12243;42.708;23.310;2022-09-20T07:54:13;95201.19;;;14.73;60.79
16451;BME280;12243;42.708;23.310;2022-09-20T07:56:40;95204.81;;;14.90;60.59
16451;BME280;12243;42.708;23.310;2022-09-20T07:59:07;95209.66;;;14.85;59.75
16451;BME280;12243;42.708;23.310;2022-09-20T08:01:37;95207.16;;;14.20;60.40
16451;BME280;12243;42.708;23.310;2022-09-20T08:04:04;95198.47;;;14.19;60.57
16451;BME280;12243;42.708;23.310;2022-09-20T08:06:31;95200.59;;;14.06;61.06
16451;BME280;12243;42.708;23.310;2022-09-20T08:09:03;95195.59;;;14.13;61.29
16451;BME280;12243;42.708;23.310;2022-09-20T08:11:30;95195.66;;;14.48;59.17
16451;BME280;12243;42.708;23.310;2022-09-20T08:13:58;95190.41;;;14.58;58.63
16451;BME280;12243;42.708;23.310;2022-09-20T08:16:26;95195.94;;;14.91;57.81
16451;BME280;12243;42.708;23.310;2022-09-20T08:18:54;95191.69;;;15.08;56.18
16451;BME280;12243;42.708;23.310;2022-09-20T08:21:22;95203.03;;;15.16;56.11
16451;BME280;12243;42.708;23.310;2022-09-20T08:23:50;95200.13;;;15.19;54.44
16451;BME280;12243;42.708;23.310;2022-09-20T08:26:20;95203.44;;;15.47;53.46
16451;BME280;12243;42.708;23.310;2022-09-20T08:28:51;95209.78;;;15.81;51.56
16451;BME280;12243;42.708;23.310;2022-09-20T08:31:20;95202.31;;;15.50;49.93
16451;BME280;12243;42.708;23.310;2022-09-20T08:33:49;95198.25;;;15.74;50.03
16451;BME280;12243;42.708;23.310;2022-09-20T08:36:18;95188.00;;;15.96;49.47
16451;BME280;12243;42.708;23.310;2022-09-20T08:38:45;95187.19;;;15.96;49.31
16451;BME280;12243;42.708;23.310;2022-09-20T08:41:14;95177.78;;;15.85;48.70
16451;BME280;12243;42.708;23.310;2022-09-20T08:43:49;95176.69;;;15.96;48.87
16451;BME280;12243;42.708;23.310;2022-09-20T08:46:19;95174.84;;;16.31;47.36
16451;BME280;12243;42.708;23.310;2022-09-20T08:48:52;95179.84;;;16.50;46.45
16451;BME280;12243;42.708;23.310;2022-09-20T08:51:19;95176.00;;;16.87;45.84
16451;BME280;12243;42.708;23.310;2022-09-20T08:53:50;95164.19;;;17.24;45.09
16451;BME280;12243;42.708;23.310;2022-09-20T08:56:19;95170.72;;;17.36;44.87
16451;BME280;12243;42.708;23.310;2022-09-20T08:58:48;95163.13;;;17.66;43.65
16451;BME280;12243;42.708;23.310;2022-09-20T09:01:20;95154.16;;;17.03;45.20
16451;BME280;12243;42.708;23.310;2022-09-20T09:03:49;95167.53;;;16.51;46.48
16451;BME280;12243;42.708;23.310;2022-09-20T09:06:19;95166.06;;;16.56;46.84
16451;BME280;12243;42.708;23.310;2022-09-20T09:08:48;95162.75;;;16.46;47.31
16451;BME280;12243;42.708;23.310;2022-09-20T09:11:19;95164.03;;;16.34;47.12
16451;BME280;12243;42.708;23.310;2022-09-20T09:13:53;95162.06;;;16.36;45.76
16451;BME280;12243;42.708;23.310;2022-09-20T09:16:22;95152.94;;;16.56;46.73
16451;BME280;12243;42.708;23.310;2022-09-20T09:18:51;95146.41;;;17.01;45.68
16451;BME280;12243;42.708;23.310;2022-09-20T09:21:22;95142.63;;;17.36;45.59
16451;BME280;12243;42.708;23.310;2022-09-20T09:23:52;95143.59;;;18.07;43.11
16451;BME280;12243;42.708;23.310;2022-09-20T09:26:25;95139.13;;;18.47;40.93
16451;BME280;12243;42.708;23.310;2022-09-20T09:29:14;95139.47;;;18.13;42.25
16451;BME280;12243;42.708;23.310;2022-09-20T09:31:42;95128.94;;;18.05;41.72
16451;BME280;12243;42.708;23.310;2022-09-20T09:34:24;95130.81;;;17.96;42.08
16451;BME280;12243;42.708;23.310;2022-09-20T09:36:52;95129.56;;;17.76;43.00
16451;BME280;12243;42.708;23.310;2022-09-20T09:39:23;95123.63;;;17.82;43.57
16451;BME280;12243;42.708;23.310;2022-09-20T09:41:52;95116.03;;;17.71;42.77
16451;BME280;12243;42.708;23.310;2022-09-20T09:44:23;95116.06;;;17.62;43.50
16451;BME280;12243;42.708;23.310;2022-09-20T09:46:52;95111.84;;;17.29;44.16
16451;BME280;12243;42.708;23.310;2022-09-20T09:49:21;95126.53;;;16.99;44.93
16451;BME280;12243;42.708;23.310;2022-09-20T09:52:04;95116.75;;;16.66;45.85
16451;BME280;12243;42.708;23.310;2022-09-20T09:54:33;95124.28;;;16.37;46.85
16451;BME280;12243;42.708;23.310;2022-09-20T09:57:23;95125.53;;;16.16;47.23
16451;BME280;12243;42.708;23.310;2022-09-20T10:00:19;95117.72;;;16.41;47.94
16451;BME280;12243;42.708;23.310;2022-09-20T10:05:39;95109.59;;;17.73;42.85
16451;BME280;12243;42.708;23.310;2022-09-20T10:08:18;95112.78;;;17.52;43.03
16451;BME280;12243;42.708;23.310;2022-09-20T10:10:58;95107.28;;;16.90;44.34
16451;BME280;12243;42.708;23.310;2022-09-20T10:13:32;95116.75;;;16.66;45.26
16451;BME280;12243;42.708;23.310;2022-09-20T10:16:09;95115.75;;;16.59;46.24
16451;BME280;12243;42.708;23.310;2022-09-20T10:18:46;95115.16;;;16.82;45.52
16451;BME280;12243;42.708;23.310;2022-09-20T10:21:32;95104.28;;;17.34;44.31
16451;BME280;12243;42.708;23.310;2022-09-20T10:24:13;95089.75;;;18.02;42.66
16451;BME280;12243;42.708;23.310;2022-09-20T10:27:07;95098.63;;;18.09;42.32
16451;BME280;12243;42.708;23.310;2022-09-20T10:29:45;95110.69;;;18.03;42.66
16451;BME280;12243;42.708;23.310;2022-09-20T10:35:31;95104.22;;;17.58;44.86
16451;BME280;12243;42.708;23.310;2022-09-20T10:38:11;95104.84;;;17.69;43.88
16451;BME280;12243;42.708;23.310;2022-09-20T10:40:50;95101.25;;;17.61;42.85
16451;BME280;12243;42.708;23.310;2022-09-20T10:43:51;95097.50;;;17.39;42.88
16451;BME280;12243;42.708;23.310;2022-09-20T10:46:28;95096.72;;;17.31;43.11
16451;BME280;12243;42.708;23.310;2022-09-20T10:49:03;95097.31;;;17.49;42.55
16451;BME280;12243;42.708;23.310;2022-09-20T10:51:40;95096.28;;;17.75;42.48
16451;BME280;12243;42.708;23.310;2022-09-20T10:54:19;95097.19;;;17.98;41.60
16451;BME280;12243;42.708;23.310;2022-09-20T10:56:51;95106.16;;;17.81;40.53
16451;BME280;12243;42.708;23.310;2022-09-20T10:59:29;95095.59;;;17.81;41.22
16451;BME280;12243;42.708;23.310;2022-09-20T11:02:13;95087.69;;;17.89;41.77
16451;BME280;12243;42.708;23.310;2022-09-20T11:05:12;95085.91;;;18.13;40.94
16451;BME280;12243;42.708;23.310;2022-09-20T11:07:50;95085.16;;;18.27;40.50
16451;BME280;12243;42.708;23.310;2022-09-20T11:10:21;95083.28;;;18.13;40.34
16451;BME280;12243;42.708;23.310;2022-09-20T11:12:55;95080.53;;;17.58;39.78
16451;BME280;12243;42.708;23.310;2022-09-20T11:15:28;95085.84;;;17.34;40.77
16451;BME280;12243;42.708;23.310;2022-09-20T11:18:03;95080.63;;;17.01;41.91
16451;BME280;12243;42.708;23.310;2022-09-20T11:20:35;95082.44;;;17.01;42.13
16451;BME280;12243;42.708;23.310;2022-09-20T11:23:09;95071.88;;;17.33;40.73
16451;BME280;12243;42.708;23.310;2022-09-20T11:25:41;95070.28;;;17.00;40.76
16451;BME280;12243;42.708;23.310;2022-09-20T11:28:13;95072.75;;;16.85;41.76
16451;BME280;12243;42.708;23.310;2022-09-20T11:30:52;95066.59;;;17.25;40.88
16451;BME280;12243;42.708;23.310;2022-09-20T11:33:25;95067.09;;;17.37;40.23
16451;BME280;12243;42.708;23.310;2022-09-20T11:35:56;95071.47;;;17.53;39.89
16451;BME280;12243;42.708;23.310;2022-09-20T11:38:31;95074.78;;;17.47;40.67
16451;BME280;12243;42.708;23.310;2022-09-20T11:41:01;95076.59;;;17.54;40.11
16451;BME280;12243;42.708;23.310;2022-09-20T11:43:30;95067.75;;;17.87;39.42
16451;BME280;12243;42.708;23.310;2022-09-20T11:46:00;95060.56;;;17.72;40.30
16451;BME280;12243;42.708;23.310;2022-09-20T11:48:31;95041.75;;;17.83;38.87
16451;BME280;12243;42.708;23.310;2022-09-20T11:51:26;95054.59;;;17.87;39.21
16451;BME280;12243;42.708;23.310;2022-09-20T11:54:13;95051.63;;;18.13;39.29
16451;BME280;12243;42.708;23.310;2022-09-20T11:56:49;95049.78;;;18.44;39.84
16451;BME280;12243;42.708;23.310;2022-09-20T11:59:26;95046.81;;;18.93;38.20
16451;BME280;12243;42.708;23.310;2022-09-20T12:01:55;95043.50;;;19.29;37.33
16451;BME280;12243;42.708;23.310;2022-09-20T12:04:26;95046.41;;;19.34;37.80
16451;BME280;12243;42.708;23.310;2022-09-20T12:07:00;95057.50;;;19.15;38.22
16451;BME280;12243;42.708;23.310;2022-09-20T12:09:32;95049.69;;;18.61;39.08
16451;BME280;12243;42.708;23.310;2022-09-20T12:12:30;95049.94;;;18.74;38.94
16451;BME280;12243;42.708;23.310;2022-09-20T12:14:59;95057.28;;;19.01;38.10
16451;BME280;12243;42.708;23.310;2022-09-20T12:21:00;95038.09;;;19.08;37.42
16451;BME280;12243;42.708;23.310;2022-09-20T12:23:59;95044.72;;;18.66;37.80
16451;BME280;12243;42.708;23.310;2022-09-20T12:26:42;95041.59;;;18.62;38.23
16451;BME280;12243;42.708;23.310;2022-09-20T12:32:38;95048.09;;;18.97;37.31
16451;BME280;12243;42.708;23.310;2022-09-20T12:38:54;95050.09;;;18.95;38.14
16451;BME280;12243;42.708;23.310;2022-09-20T12:41:22;95039.38;;;19.26;37.51
16451;BME280;12243;42.708;23.310;2022-09-20T12:44:03;95045.56;;;19.19;37.85
16451;BME280;12243;42.708;23.310;2022-09-20T12:46:34;95039.63;;;18.87;37.88
16451;BME280;12243;42.708;23.310;2022-09-20T12:49:20;95035.53;;;18.99;37.36
16451;BME280;12243;42.708;23.310;2022-09-20T12:52:02;95038.94;;;19.23;36.73
16451;BME280;12243;42.708;23.310;2022-09-20T12:54:50;95037.47;;;18.83;37.25
16451;BME280;12243;42.708;23.310;2022-09-20T12:57:27;95031.22;;;18.61;36.79
16451;BME280;12243;42.708;23.310;2022-09-20T13:00:00;95032.69;;;18.40;36.97
16451;BME280;12243;42.708;23.310;2022-09-20T13:02:56;95030.94;;;18.32;37.50
16451;BME280;12243;42.708;23.310;2022-09-20T13:05:32;95025.78;;;18.39;36.47
16451;BME280;12243;42.708;23.310;2022-09-20T13:08:03;95026.69;;;18.00;37.33
16451;BME280;12243;42.708;23.310;2022-09-20T13:10:38;95030.56;;;18.13;37.16
16451;BME280;12243;42.708;23.310;2022-09-20T13:13:15;95029.06;;;17.87;37.11
16451;BME280;12243;42.708;23.310;2022-09-20T13:15:50;95030.06;;;17.86;36.95
16451;BME280;12243;42.708;23.310;2022-09-20T13:18:19;95022.22;;;18.01;36.82
16451;BME280;12243;42.708;23.310;2022-09-20T13:20:47;95027.88;;;18.21;36.49
16451;BME280;12243;42.708;23.310;2022-09-20T13:23:19;95015.81;;;18.26;35.96
16451;BME280;12243;42.708;23.310;2022-09-20T13:25:47;95026.47;;;18.33;36.01
16451;BME280;12243;42.708;23.310;2022-09-20T13:28:25;95028.13;;;18.34;36.30
16451;BME280;12243;42.708;23.310;2022-09-20T13:31:19;95021.41;;;18.00;36.62
16451;BME280;12243;42.708;23.310;2022-09-20T13:33:48;95017.75;;;17.78;36.76
16451;BME280;12243;42.708;23.310;2022-09-20T13:36:22;95021.53;;;17.76;37.44
16451;BME280;12243;42.708;23.310;2022-09-20T13:38:52;95022.16;;;17.86;37.98
16451;BME280;12243;42.708;23.310;2022-09-20T13:41:19;95025.59;;;17.87;37.63
16451;BME280;12243;42.708;23.310;2022-09-20T13:43:48;95026.38;;;17.95;37.36
16451;BME280;12243;42.708;23.310;2022-09-20T13:46:22;95018.00;;;17.52;38.41
16451;BME280;12243;42.708;23.310;2022-09-20T13:48:52;95011.75;;;17.45;38.29
16451;BME280;12243;42.708;23.310;2022-09-20T13:51:24;95022.47;;;17.44;40.15
16451;BME280;12243;42.708;23.310;2022-09-20T13:53:52;95022.34;;;17.29;39.36
16451;BME280;12243;42.708;23.310;2022-09-20T13:56:20;95021.38;;;17.22;39.00
16451;BME280;12243;42.708;23.310;2022-09-20T13:58:49;95017.28;;;17.19;39.04
16451;BME280;12243;42.708;23.310;2022-09-20T14:01:26;95023.41;;;17.03;40.24
16451;BME280;12243;42.708;23.310;2022-09-20T14:03:56;95015.53;;;16.79;41.49
16451;BME280;12243;42.708;23.310;2022-09-20T14:06:27;95010.44;;;16.85;42.51
16451;BME280;12243;42.708;23.310;2022-09-20T14:08:55;95008.97;;;16.83;42.18
16451;BME280;12243;42.708;23.310;2022-09-20T14:11:25;95018.97;;;16.87;42.94
16451;BME280;12243;42.708;23.310;2022-09-20T14:13:54;95006.31;;;16.83;43.68
16451;BME280;12243;42.708;23.310;2022-09-20T14:16:26;95018.44;;;17.08;43.31
16451;BME280;12243;42.708;23.310;2022-09-20T14:18:54;94998.75;;;16.96;43.81
16451;BME280;12243;42.708;23.310;2022-09-20T14:21:24;95015.53;;;16.79;41.91
16451;BME280;12243;42.708;23.310;2022-09-20T14:23:53;95013.72;;;16.71;42.22
16451;BME280;12243;42.708;23.310;2022-09-20T14:26:24;95008.94;;;16.66;42.57
16451;BME280;12243;42.708;23.310;2022-09-20T14:28:51;95011.91;;;16.72;43.69
16451;BME280;12243;42.708;23.310;2022-09-20T14:31:21;95014.25;;;16.75;42.38
16451;BME280;12243;42.708;23.310;2022-09-20T14:33:52;95014.53;;;16.72;41.85
16451;BME280;12243;42.708;23.310;2022-09-20T14:36:22;95023.75;;;16.51;42.49
16451;BME280;12243;42.708;23.310;2022-09-20T14:38:51;95012.72;;;16.48;43.57
16451;BME280;12243;42.708;23.310;2022-09-20T14:41:24;95027.69;;;16.47;44.04
16451;BME280;12243;42.708;23.310;2022-09-20T14:43:54;95025.69;;;16.49;44.05
16451;BME280;12243;42.708;23.310;2022-09-20T14:46:28;95019.78;;;16.55;44.95
16451;BME280;12243;42.708;23.310;2022-09-20T14:52:34;95015.50;;;16.62;44.67
16451;BME280;12243;42.708;23.310;2022-09-20T14:55:23;95017.16;;;16.55;44.97